sensor_id;sensor_type;location;lat;lon;timestamp;P1;durP1;ratioP1;P2;durP2;ratioP2
44452;SDS011;30155;52.164;21.236;2023-02-18T00:01:52;3.30;;;1.50;;
44452;SDS011;30155;52.164;21.236;2023-02-18T00:06:45;5.10;;;1.90;;
44452;SDS011;30155;52.164;21.236;2023-02-18T00:11:38;6.80;;;1.50;;
44452;SDS011;30155;52.164;21.236;2023-02-18T00:16:34;3.10;;;1.60;;
44452;SDS011;30155;52.164;21.236;2023-02-18T00:21:27;3.70;;;1.70;;
44452;SDS011;30155;52.164;21.236;2023-02-18T00:26:20;4.60;;;1.40;;
44452;SDS011;30155;52.164;21.236;2023-02-18T00:31:17;4.20;;;1.30;;
44452;SDS011;30155;52.164;21.236;2023-02-18T00:36:14;3.60;;;1.30;;
44452;SDS011;30155;52.164;21.236;2023-02-18T00:41:08;3.70;;;1.30;;
44452;SDS011;30155;52.164;21.236;2023-02-18T00:46:01;5.00;;;1.80;;
44452;SDS011;30155;52.164;21.236;2023-02-18T00:50:54;4.10;;;1.70;;
44452;SDS011;30155;52.164;21.236;2023-02-18T00:55:48;5.00;;;1.80;;
44452;SDS011;30155;52.164;21.236;2023-02-18T01:00:41;7.20;;;1.90;;
44452;SDS011;30155;52.164;21.236;2023-02-18T01:05:36;7.50;;;1.60;;
44452;SDS011;30155;52.164;21.236;2023-02-18T01:10:30;4.50;;;1.80;;
44452;SDS011;30155;52.164;21.236;2023-02-18T01:15:24;9.00;;;1.50;;
44452;SDS011;30155;52.164;21.236;2023-02-18T01:20:18;6.10;;;2.00;;
44452;SDS011;30155;52.164;21.236;2023-02-18T01:25:11;4.30;;;1.60;;
44452;SDS011;30155;52.164;21.236;2023-02-18T01:30:07;5.10;;;1.70;;
44452;SDS011;30155;52.164;21.236;2023-02-18T01:35:04;6.90;;;1.50;;
44452;SDS011;30155;52.164;21.236;2023-02-18T01:39:58;8.30;;;1.80;;
44452;SDS011;30155;52.164;21.236;2023-02-18T01:44:51;5.60;;;1.60;;
44452;SDS011;30155;52.164;21.236;2023-02-18T01:49:45;4.90;;;1.60;;
44452;SDS011;30155;52.164;21.236;2023-02-18T01:54:43;4.10;;;1.10;;
44452;SDS011;30155;52.164;21.236;2023-02-18T02:04:39;3.60;;;1.50;;
44452;SDS011;30155;52.164;21.236;2023-02-18T02:09:33;5.20;;;1.40;;
44452;SDS011;30155;52.164;21.236;2023-02-18T02:14:36;5.30;;;2.10;;
44452;SDS011;30155;52.164;21.236;2023-02-18T02:35:22;8.60;;;2.10;;
44452;SDS011;30155;52.164;21.236;2023-02-18T02:40:22;7.60;;;1.30;;
44452;SDS011;30155;52.164;21.236;2023-02-18T02:45:47;6.10;;;2.10;;
44452;SDS011;30155;52.164;21.236;2023-02-18T02:56:02;7.00;;;1.70;;
44452;SDS011;30155;52.164;21.236;2023-02-18T03:01:01;8.70;;;2.20;;
44452;SDS011;30155;52.164;21.236;2023-02-18T03:11:53;6.20;;;2.00;;
44452;SDS011;30155;52.164;21.236;2023-02-18T03:16:58;11.20;;;2.50;;
44452;SDS011;30155;52.164;21.236;2023-02-18T03:32:12;6.10;;;2.00;;
44452;SDS011;30155;52.164;21.236;2023-02-18T03:37:09;7.20;;;2.20;;
44452;SDS011;30155;52.164;21.236;2023-02-18T03:42:04;7.40;;;1.60;;
44452;SDS011;30155;52.164;21.236;2023-02-18T03:46:58;3.00;;;1.20;;
44452;SDS011;30155;52.164;21.236;2023-02-18T03:51:51;6.20;;;1.80;;
44452;SDS011;30155;52.164;21.236;2023-02-18T03:56:44;8.20;;;2.20;;
44452;SDS011;30155;52.164;21.236;2023-02-18T04:01:37;5.20;;;1.40;;
44452;SDS011;30155;52.164;21.236;2023-02-18T04:06:30;4.00;;;1.60;;
44452;SDS011;30155;52.164;21.236;2023-02-18T04:11:23;3.00;;;1.80;;
44452;SDS011;30155;52.164;21.236;2023-02-18T04:16:16;6.10;;;1.80;;
44452;SDS011;30155;52.164;21.236;2023-02-18T04:21:09;6.30;;;2.00;;
44452;SDS011;30155;52.164;21.236;2023-02-18T04:26:02;8.10;;;1.90;;
44452;SDS011;30155;52.164;21.236;2023-02-18T04:30:55;4.80;;;1.90;;
44452;SDS011;30155;52.164;21.236;2023-02-18T04:35:49;7.50;;;1.80;;
44452;SDS011;30155;52.164;21.236;2023-02-18T04:40:42;5.00;;;2.00;;
44452;SDS011;30155;52.164;21.236;2023-02-18T04:45:34;6.50;;;2.00;;
44452;SDS011;30155;52.164;21.236;2023-02-18T04:50:29;7.00;;;1.40;;
44452;SDS011;30155;52.164;21.236;2023-02-18T04:55:22;9.10;;;1.90;;
44452;SDS011;30155;52.164;21.236;2023-02-18T05:00:17;4.90;;;1.80;;
44452;SDS011;30155;52.164;21.236;2023-02-18T05:05:11;5.80;;;1.80;;
44452;SDS011;30155;52.164;21.236;2023-02-18T05:10:05;6.40;;;2.70;;
44452;SDS011;30155;52.164;21.236;2023-02-18T05:14:59;7.30;;;1.70;;
44452;SDS011;30155;52.164;21.236;2023-02-18T05:19:52;5.40;;;2.20;;
44452;SDS011;30155;52.164;21.236;2023-02-18T05:24:45;4.70;;;1.50;;
44452;SDS011;30155;52.164;21.236;2023-02-18T05:29:38;5.60;;;1.50;;
44452;SDS011;30155;52.164;21.236;2023-02-18T05:34:31;7.40;;;2.30;;
44452;SDS011;30155;52.164;21.236;2023-02-18T05:39:24;7.50;;;1.90;;
44452;SDS011;30155;52.164;21.236;2023-02-18T05:44:17;8.20;;;2.50;;
44452;SDS011;30155;52.164;21.236;2023-02-18T05:49:22;5.30;;;2.10;;
44452;SDS011;30155;52.164;21.236;2023-02-18T05:54:17;4.60;;;1.90;;
44452;SDS011;30155;52.164;21.236;2023-02-18T05:59:09;6.30;;;1.80;;
44452;SDS011;30155;52.164;21.236;2023-02-18T06:04:02;7.90;;;1.80;;
44452;SDS011;30155;52.164;21.236;2023-02-18T06:08:55;8.80;;;2.80;;
44452;SDS011;30155;52.164;21.236;2023-02-18T06:13:48;5.60;;;1.90;;
44452;SDS011;30155;52.164;21.236;2023-02-18T06:18:41;7.10;;;2.30;;
44452;SDS011;30155;52.164;21.236;2023-02-18T06:23:33;7.10;;;1.60;;
44452;SDS011;30155;52.164;21.236;2023-02-18T06:28:26;6.10;;;1.80;;
44452;SDS011;30155;52.164;21.236;2023-02-18T06:33:19;7.60;;;1.90;;
44452;SDS011;30155;52.164;21.236;2023-02-18T06:38:12;7.60;;;1.80;;
44452;SDS011;30155;52.164;21.236;2023-02-18T06:43:05;6.00;;;1.70;;
44452;SDS011;30155;52.164;21.236;2023-02-18T06:48:01;4.30;;;1.60;;
44452;SDS011;30155;52.164;21.236;2023-02-18T06:52:54;4.50;;;1.40;;
44452;SDS011;30155;52.164;21.236;2023-02-18T06:57:47;6.30;;;1.90;;
44452;SDS011;30155;52.164;21.236;2023-02-18T07:02:39;7.40;;;2.10;;
44452;SDS011;30155;52.164;21.236;2023-02-18T07:07:32;8.00;;;1.80;;
44452;SDS011;30155;52.164;21.236;2023-02-18T07:12:27;8.60;;;2.10;;
44452;SDS011;30155;52.164;21.236;2023-02-18T07:17:20;6.10;;;2.40;;
44452;SDS011;30155;52.164;21.236;2023-02-18T07:22:13;8.00;;;2.10;;
44452;SDS011;30155;52.164;21.236;2023-02-18T07:27:06;7.70;;;2.20;;
44452;SDS011;30155;52.164;21.236;2023-02-18T07:31:59;7.70;;;2.60;;
44452;SDS011;30155;52.164;21.236;2023-02-18T07:36:52;6.10;;;1.80;;
44452;SDS011;30155;52.164;21.236;2023-02-18T07:41:45;8.30;;;2.20;;
44452;SDS011;30155;52.164;21.236;2023-02-18T07:46:40;11.20;;;2.30;;
44452;SDS011;30155;52.164;21.236;2023-02-18T07:51:33;7.30;;;2.00;;
44452;SDS011;30155;52.164;21.236;2023-02-18T07:56:28;6.90;;;3.10;;
44452;SDS011;30155;52.164;21.236;2023-02-18T08:01:20;8.70;;;2.40;;
44452;SDS011;30155;52.164;21.236;2023-02-18T08:06:18;9.00;;;2.60;;
44452;SDS011;30155;52.164;21.236;2023-02-18T08:11:13;9.80;;;2.20;;
44452;SDS011;30155;52.164;21.236;2023-02-18T08:16:10;7.40;;;2.60;;
44452;SDS011;30155;52.164;21.236;2023-02-18T08:21:03;6.70;;;2.50;;
44452;SDS011;30155;52.164;21.236;2023-02-18T08:25:56;6.00;;;2.20;;
44452;SDS011;30155;52.164;21.236;2023-02-18T08:30:49;6.30;;;2.10;;
44452;SDS011;30155;52.164;21.236;2023-02-18T08:35:45;9.40;;;2.10;;
44452;SDS011;30155;52.164;21.236;2023-02-18T08:40:40;6.90;;;2.10;;
44452;SDS011;30155;52.164;21.236;2023-02-18T08:45:33;7.50;;;2.60;;
44452;SDS011;30155;52.164;21.236;2023-02-18T08:50:28;11.50;;;3.10;;
44452;SDS011;30155;52.164;21.236;2023-02-18T08:55:21;7.50;;;1.90;;
44452;SDS011;30155;52.164;21.236;2023-02-18T09:00:15;7.70;;;2.40;;
44452;SDS011;30155;52.164;21.236;2023-02-18T09:05:09;6.20;;;2.90;;
44452;SDS011;30155;52.164;21.236;2023-02-18T09:10:03;8.00;;;2.90;;
44452;SDS011;30155;52.164;21.236;2023-02-18T09:14:56;8.70;;;2.50;;
44452;SDS011;30155;52.164;21.236;2023-02-18T09:19:49;5.30;;;2.30;;
44452;SDS011;30155;52.164;21.236;2023-02-18T09:24:42;10.30;;;2.60;;
44452;SDS011;30155;52.164;21.236;2023-02-18T09:29:37;6.00;;;2.40;;
44452;SDS011;30155;52.164;21.236;2023-02-18T09:34:31;7.10;;;3.40;;
44452;SDS011;30155;52.164;21.236;2023-02-18T09:39:24;7.10;;;3.00;;
44452;SDS011;30155;52.164;21.236;2023-02-18T09:44:19;10.70;;;2.50;;
44452;SDS011;30155;52.164;21.236;2023-02-18T09:49:19;7.60;;;3.70;;
44452;SDS011;30155;52.164;21.236;2023-02-18T09:54:16;8.90;;;2.20;;
44452;SDS011;30155;52.164;21.236;2023-02-18T09:59:18;8.80;;;2.20;;
44452;SDS011;30155;52.164;21.236;2023-02-18T10:04:22;8.20;;;2.70;;
44452;SDS011;30155;52.164;21.236;2023-02-18T10:09:34;9.50;;;2.50;;
44452;SDS011;30155;52.164;21.236;2023-02-18T10:14:31;6.50;;;2.70;;
44452;SDS011;30155;52.164;21.236;2023-02-18T10:19:33;5.80;;;2.50;;
44452;SDS011;30155;52.164;21.236;2023-02-18T10:24:32;5.10;;;1.80;;
44452;SDS011;30155;52.164;21.236;2023-02-18T10:29:34;7.30;;;2.30;;
44452;SDS011;30155;52.164;21.236;2023-02-18T10:54:53;8.10;;;2.30;;
44452;SDS011;30155;52.164;21.236;2023-02-18T10:59:55;7.50;;;2.00;;
44452;SDS011;30155;52.164;21.236;2023-02-18T11:05:18;7.00;;;2.10;;
44452;SDS011;30155;52.164;21.236;2023-02-18T11:10:15;12.40;;;3.00;;
44452;SDS011;30155;52.164;21.236;2023-02-18T11:30:22;6.40;;;2.80;;
44452;SDS011;30155;52.164;21.236;2023-02-18T11:35:19;9.10;;;2.20;;
44452;SDS011;30155;52.164;21.236;2023-02-18T11:40:21;12.20;;;2.80;;
44452;SDS011;30155;52.164;21.236;2023-02-18T11:45:33;10.90;;;3.00;;
44452;SDS011;30155;52.164;21.236;2023-02-18T11:50:30;9.30;;;2.40;;
44452;SDS011;30155;52.164;21.236;2023-02-18T11:55:26;6.80;;;2.70;;
44452;SDS011;30155;52.164;21.236;2023-02-18T12:00:35;7.30;;;2.50;;
44452;SDS011;30155;52.164;21.236;2023-02-18T12:05:33;7.00;;;2.60;;
44452;SDS011;30155;52.164;21.236;2023-02-18T12:20:53;6.50;;;2.70;;
44452;SDS011;30155;52.164;21.236;2023-02-18T12:36:06;8.10;;;3.00;;
44452;SDS011;30155;52.164;21.236;2023-02-18T13:11:52;9.20;;;4.00;;
44452;SDS011;30155;52.164;21.236;2023-02-18T13:16:49;10.30;;;3.20;;
44452;SDS011;30155;52.164;21.236;2023-02-18T13:21:49;10.70;;;3.60;;
44452;SDS011;30155;52.164;21.236;2023-02-18T13:26:46;6.70;;;2.60;;
44452;SDS011;30155;52.164;21.236;2023-02-18T13:31:50;10.90;;;3.20;;
44452;SDS011;30155;52.164;21.236;2023-02-18T13:47:09;9.80;;;2.30;;
44452;SDS011;30155;52.164;21.236;2023-02-18T13:52:02;8.80;;;3.30;;
44452;SDS011;30155;52.164;21.236;2023-02-18T13:57:00;10.10;;;2.80;;
44452;SDS011;30155;52.164;21.236;2023-02-18T14:01:56;6.90;;;2.50;;
44452;SDS011;30155;52.164;21.236;2023-02-18T14:22:31;9.30;;;2.80;;
44452;SDS011;30155;52.164;21.236;2023-02-18T14:27:24;8.50;;;2.60;;
44452;SDS011;30155;52.164;21.236;2023-02-18T14:32:18;8.00;;;3.10;;
44452;SDS011;30155;52.164;21.236;2023-02-18T14:57:30;9.00;;;2.50;;
44452;SDS011;30155;52.164;21.236;2023-02-18T15:02:28;9.70;;;4.20;;
44452;SDS011;30155;52.164;21.236;2023-02-18T15:07:22;10.30;;;3.80;;
44452;SDS011;30155;52.164;21.236;2023-02-18T15:12:19;7.50;;;2.80;;
44452;SDS011;30155;52.164;21.236;2023-02-18T15:17:17;8.00;;;2.50;;
44452;SDS011;30155;52.164;21.236;2023-02-18T15:22:17;8.00;;;2.60;;
44452;SDS011;30155;52.164;21.236;2023-02-18T15:27:13;6.70;;;2.30;;
44452;SDS011;30155;52.164;21.236;2023-02-18T15:32:24;3.90;;;1.90;;
44452;SDS011;30155;52.164;21.236;2023-02-18T15:37:19;4.80;;;1.40;;
44452;SDS011;30155;52.164;21.236;2023-02-18T15:47:17;4.40;;;1.70;;
44452;SDS011;30155;52.164;21.236;2023-02-18T15:52:12;3.80;;;1.40;;
44452;SDS011;30155;52.164;21.236;2023-02-18T15:57:05;3.40;;;2.00;;
44452;SDS011;30155;52.164;21.236;2023-02-18T16:07:02;7.10;;;2.00;;
44452;SDS011;30155;52.164;21.236;2023-02-18T16:12:29;2.50;;;1.40;;
44452;SDS011;30155;52.164;21.236;2023-02-18T16:17:24;2.60;;;1.30;;
44452;SDS011;30155;52.164;21.236;2023-02-18T16:22:25;5.50;;;2.20;;
44452;SDS011;30155;52.164;21.236;2023-02-18T16:27:31;2.20;;;1.50;;
44452;SDS011;30155;52.164;21.236;2023-02-18T16:32:26;4.70;;;2.20;;
44452;SDS011;30155;52.164;21.236;2023-02-18T16:37:18;5.60;;;2.60;;
44452;SDS011;30155;52.164;21.236;2023-02-18T16:42:30;5.20;;;2.90;;
44452;SDS011;30155;52.164;21.236;2023-02-18T16:47:23;9.40;;;3.70;;
44452;SDS011;30155;52.164;21.236;2023-02-18T16:52:16;5.70;;;2.50;;
44452;SDS011;30155;52.164;21.236;2023-02-18T16:57:09;8.10;;;3.30;;
44452;SDS011;30155;52.164;21.236;2023-02-18T17:02:02;6.20;;;2.60;;
44452;SDS011;30155;52.164;21.236;2023-02-18T17:06:55;6.10;;;2.80;;
44452;SDS011;30155;52.164;21.236;2023-02-18T17:11:49;7.10;;;3.20;;
44452;SDS011;30155;52.164;21.236;2023-02-18T17:16:47;9.30;;;3.90;;
44452;SDS011;30155;52.164;21.236;2023-02-18T17:21:41;6.60;;;3.20;;
44452;SDS011;30155;52.164;21.236;2023-02-18T17:26:38;6.30;;;2.80;;
44452;SDS011;30155;52.164;21.236;2023-02-18T17:31:38;10.30;;;3.40;;
44452;SDS011;30155;52.164;21.236;2023-02-18T17:36:35;8.80;;;3.20;;
44452;SDS011;30155;52.164;21.236;2023-02-18T17:41:29;7.50;;;3.50;;
44452;SDS011;30155;52.164;21.236;2023-02-18T17:46:21;9.30;;;3.10;;
44452;SDS011;30155;52.164;21.236;2023-02-18T17:51:25;7.00;;;2.90;;
44452;SDS011;30155;52.164;21.236;2023-02-18T17:56:20;6.40;;;3.40;;
44452;SDS011;30155;52.164;21.236;2023-02-18T18:01:13;6.00;;;3.40;;
44452;SDS011;30155;52.164;21.236;2023-02-18T18:06:15;6.80;;;3.50;;
44452;SDS011;30155;52.164;21.236;2023-02-18T18:11:11;6.20;;;3.20;;
44452;SDS011;30155;52.164;21.236;2023-02-18T18:16:11;9.60;;;3.90;;
44452;SDS011;30155;52.164;21.236;2023-02-18T18:21:08;8.00;;;5.10;;
44452;SDS011;30155;52.164;21.236;2023-02-18T18:26:10;9.70;;;5.10;;
44452;SDS011;30155;52.164;21.236;2023-02-18T18:31:03;9.20;;;4.30;;
44452;SDS011;30155;52.164;21.236;2023-02-18T18:35:57;6.10;;;4.10;;
44452;SDS011;30155;52.164;21.236;2023-02-18T18:40:52;8.70;;;3.50;;
44452;SDS011;30155;52.164;21.236;2023-02-18T18:45:46;6.60;;;3.70;;
44452;SDS011;30155;52.164;21.236;2023-02-18T18:50:40;6.40;;;3.20;;
44452;SDS011;30155;52.164;21.236;2023-02-18T18:55:35;6.00;;;3.70;;
44452;SDS011;30155;52.164;21.236;2023-02-18T19:00:41;7.90;;;4.40;;
44452;SDS011;30155;52.164;21.236;2023-02-18T19:05:36;6.90;;;3.70;;
44452;SDS011;30155;52.164;21.236;2023-02-18T19:10:31;5.00;;;2.80;;
44452;SDS011;30155;52.164;21.236;2023-02-18T19:15:26;5.40;;;2.90;;
44452;SDS011;30155;52.164;21.236;2023-02-18T19:20:21;6.50;;;3.20;;
44452;SDS011;30155;52.164;21.236;2023-02-18T19:25:17;4.20;;;3.00;;
44452;SDS011;30155;52.164;21.236;2023-02-18T19:30:12;4.00;;;2.90;;
44452;SDS011;30155;52.164;21.236;2023-02-18T19:35:25;4.60;;;3.60;;
44452;SDS011;30155;52.164;21.236;2023-02-18T19:40:20;8.10;;;3.90;;
44452;SDS011;30155;52.164;21.236;2023-02-18T19:45:15;5.90;;;3.60;;
44452;SDS011;30155;52.164;21.236;2023-02-18T19:50:15;4.10;;;3.40;;
44452;SDS011;30155;52.164;21.236;2023-02-18T20:00:04;4.00;;;3.20;;
44452;SDS011;30155;52.164;21.236;2023-02-18T20:05:06;7.00;;;4.30;;
44452;SDS011;30155;52.164;21.236;2023-02-18T20:10:00;5.80;;;3.60;;
44452;SDS011;30155;52.164;21.236;2023-02-18T20:14:53;5.40;;;3.50;;
44452;SDS011;30155;52.164;21.236;2023-02-18T20:19:46;4.60;;;3.50;;
44452;SDS011;30155;52.164;21.236;2023-02-18T20:24:39;6.00;;;4.10;;
44452;SDS011;30155;52.164;21.236;2023-02-18T20:29:32;5.40;;;3.90;;
44452;SDS011;30155;52.164;21.236;2023-02-18T20:34:26;7.70;;;4.80;;
44452;SDS011;30155;52.164;21.236;2023-02-18T20:39:19;5.40;;;3.70;;
44452;SDS011;30155;52.164;21.236;2023-02-18T20:44:13;5.40;;;3.10;;
44452;SDS011;30155;52.164;21.236;2023-02-18T20:49:09;4.00;;;3.10;;
44452;SDS011;30155;52.164;21.236;2023-02-18T20:54:05;5.60;;;2.90;;
44452;SDS011;30155;52.164;21.236;2023-02-18T20:59:00;6.40;;;3.60;;
44452;SDS011;30155;52.164;21.236;2023-02-18T21:03:56;4.60;;;2.90;;
44452;SDS011;30155;52.164;21.236;2023-02-18T21:08:50;4.00;;;3.40;;
44452;SDS011;30155;52.164;21.236;2023-02-18T21:13:45;6.00;;;4.10;;
44452;SDS011;30155;52.164;21.236;2023-02-18T21:18:39;6.20;;;3.90;;
44452;SDS011;30155;52.164;21.236;2023-02-18T21:23:33;6.00;;;4.20;;
44452;SDS011;30155;52.164;21.236;2023-02-18T21:28:26;7.10;;;4.70;;
44452;SDS011;30155;52.164;21.236;2023-02-18T21:33:19;5.90;;;4.20;;
44452;SDS011;30155;52.164;21.236;2023-02-18T21:38:12;6.90;;;3.90;;
44452;SDS011;30155;52.164;21.236;2023-02-18T21:43:05;6.10;;;4.20;;
44452;SDS011;30155;52.164;21.236;2023-02-18T21:47:57;7.10;;;4.40;;
44452;SDS011;30155;52.164;21.236;2023-02-18T21:53:10;5.80;;;4.80;;
44452;SDS011;30155;52.164;21.236;2023-02-18T21:58:03;5.70;;;3.30;;
44452;SDS011;30155;52.164;21.236;2023-02-18T22:02:56;3.50;;;3.00;;
44452;SDS011;30155;52.164;21.236;2023-02-18T22:07:50;4.10;;;2.60;;
44452;SDS011;30155;52.164;21.236;2023-02-18T22:12:45;4.40;;;3.00;;
44452;SDS011;30155;52.164;21.236;2023-02-18T22:17:38;3.00;;;2.50;;
44452;SDS011;30155;52.164;21.236;2023-02-18T22:22:31;4.60;;;3.10;;
44452;SDS011;30155;52.164;21.236;2023-02-18T22:27:24;4.40;;;2.70;;
44452;SDS011;30155;52.164;21.236;2023-02-18T22:32:18;5.40;;;3.60;;
44452;SDS011;30155;52.164;21.236;2023-02-18T22:37:11;6.50;;;4.10;;
44452;SDS011;30155;52.164;21.236;2023-02-18T22:42:04;5.20;;;3.90;;
44452;SDS011;30155;52.164;21.236;2023-02-18T22:46:57;7.70;;;4.00;;
44452;SDS011;30155;52.164;21.236;2023-02-18T22:51:50;6.60;;;4.30;;
44452;SDS011;30155;52.164;21.236;2023-02-18T22:56:45;8.20;;;4.20;;
44452;SDS011;30155;52.164;21.236;2023-02-18T23:01:40;8.10;;;4.30;;
44452;SDS011;30155;52.164;21.236;2023-02-18T23:06:35;5.50;;;3.90;;
44452;SDS011;30155;52.164;21.236;2023-02-18T23:11:29;6.20;;;3.30;;
44452;SDS011;30155;52.164;21.236;2023-02-18T23:16:21;7.20;;;4.10;;
44452;SDS011;30155;52.164;21.236;2023-02-18T23:21:14;8.30;;;4.50;;
44452;SDS011;30155;52.164;21.236;2023-02-18T23:26:11;6.60;;;3.50;;
44452;SDS011;30155;52.164;21.236;2023-02-18T23:31:07;5.40;;;4.00;;
44452;SDS011;30155;52.164;21.236;2023-02-18T23:36:06;5.30;;;3.40;;
44452;SDS011;30155;52.164;21.236;2023-02-18T23:41:07;4.90;;;3.60;;
44452;SDS011;30155;52.164;21.236;2023-02-18T23:46:02;7.20;;;3.90;;
44452;SDS011;30155;52.164;21.236;2023-02-18T23:50:59;5.80;;;4.00;;
44452;SDS011;30155;52.164;21.236;2023-02-18T23:56:26;5.90;;;3.90;;
